Meteo Giornale » Osservazioni meteo Italia » Catania-Sigonella

ore: 00:55 - Osservazioni Meteo Catania-Sigonella
Lat. 37° 24' N Lon. 14° 55' E Alt. 22 metri s.l.m.

sereno Europe/Rome

16 °C

Sereno

Temp. 24 Ore

13 °C

23 °C

Ovest

7.4 Km/h

Dew point 16 °C

Umidità 100 %

Visibilità  8 Km

Il sole sorge alle ore 06:07

Il sole tramonta alle ore 19:48

Data e Ora Cielo e Fenomeni T °C DP °C Um. % Pres. hPa Vis. km Vento km/h
Oggi h: 00:55 sereno Sereno 16 16 100 1018 8 O 7.4
Ieri h: 23:55 nuvoloso Nuvoloso 18 18 100 1018 8 N/NO 9.3
Ieri h: 22:55 molto_nuvoloso Molto Nuvoloso 18 18 100 1018 8 N 5.5
Ieri h: 21:55 nuvoloso Nuvoloso 17 17 100 1017 9 E/NE 7.4
Ieri h: 20:55 poco_nuvoloso Poco Nuvoloso 18 18 100 1017 10 E/NE 13
Ieri h: 19:55 nuvoloso Nuvoloso 18 18 100 1016 10 E 20.3
Ieri h: 18:55 nuvoloso Nuvoloso 18 17 93 1016 10 E/NE 25.9
Ieri h: 17:55 poco_nuvoloso Poco Nuvoloso 20 16 77 1016 8 E/NE 29.6
Ieri h: 16:55 poco_nuvoloso Poco Nuvoloso 22 15 64 1016 8 E/NE 31.5
Ieri h: 15:55 poco_nuvoloso Poco Nuvoloso 21 15 68 1016 8 E 29.6
Ieri h: 14:55 poco_nuvoloso Poco Nuvoloso 23 14 56 1016 10 E/NE 25.9
Ieri h: 13:55 poco_nuvoloso Poco Nuvoloso 23 16 64 1016 10 E 24
Ieri h: 12:55 nuvoloso Nuvoloso 23 16 64 1017 10 E 18.5
Ieri h: 11:55 nuvoloso Nuvoloso 23 15 60 1017 10 E/SE 11.1
Ieri h: 09:55 molto_nuvoloso Molto Nuvoloso 20 15 72 1017 10 N 5.5
Ieri h: 08:55 molto_nuvoloso Molto Nuvoloso 18 13 72 1017 10 N 3.7
Ieri h: 07:55 molto_nuvoloso Molto Nuvoloso 14 12 87 1017 10 N 5.5
Ieri h: 06:55 molto_nuvoloso Molto Nuvoloso 14 14 100 1017 10 N 5.5
Ieri h: 05:55 molto_nuvoloso Molto Nuvoloso 13 13 100 1016 10 O 9.3
Ieri h: 04:55 molto_nuvoloso Molto Nuvoloso 13 13 100 1017 10 O 7.4
Ieri h: 03:55 molto_nuvoloso Molto Nuvoloso 13 13 100 1017 10 O 9.3
Ieri h: 02:55 nuvoloso Nuvoloso 14 14 100 1017 10 O/SO 9.3
Ieri h: 01:55 nuvoloso Nuvoloso 14 14 100 1017 10 N 5.5